Time;durP1;ratioP1;P1;durP2;ratioP2;P2;SDS_P1;SDS_P2;PMS_P1;PMS_P2;Temp;Humidity;BMP_temperature;BMP_pressure;BME280_temperature;BME280_humidity;BME280_pressure;Samples;Min_cycle;Max_cycle;Signal;HPM_P1;HPM_P2
2021/05/25 00:00:46;;;;;;;1.15;0.55;;;;;;;9.02;75.03;98655.97;4991054;28;20036;-69
2021/05/25 00:03:12;;;;;;;0.80;0.40;;;;;;;8.98;74.97;98664.44;4992642;28;20369;-69
2021/05/25 00:05:37;;;;;;;2.70;0.68;;;;;;;8.90;75.11;98653.78;4989964;28;20023;-68
2021/05/25 00:08:03;;;;;;;0.50;0.38;;;;;;;8.85;75.16;98650.84;4980752;28;20094;-68
2021/05/25 00:10:30;;;;;;;4.95;0.47;;;;;;;8.81;75.03;98646.88;4992760;28;20030;-69
2021/05/25 00:12:57;;;;;;;0.80;0.40;;;;;;;8.63;75.66;98646.53;4993485;28;20022;-69
2021/05/25 00:15:24;;;;;;;2.13;0.30;;;;;;;8.60;75.67;98646.94;4992017;28;20054;-69
2021/05/25 00:17:51;;;;;;;1.45;0.40;;;;;;;8.59;75.98;98646.06;4988332;28;20029;-68
2021/05/25 00:20:20;;;;;;;0.88;0.30;;;;;;;8.43;76.04;98639.09;4973252;28;20031;-69
2021/05/25 00:22:45;;;;;;;0.38;0.22;;;;;;;8.31;76.48;98632.53;4992006;28;20042;-68
2021/05/25 00:25:12;;;;;;;3.22;0.40;;;;;;;8.41;76.10;98651.94;4990529;28;20030;-69
2021/05/25 00:27:38;;;;;;;0.82;0.30;;;;;;;8.40;75.85;98650.25;4991692;28;20030;-69
2021/05/25 00:30:09;;;;;;;1.27;0.30;;;;;;;8.36;75.45;98640.88;4995221;28;20112;-68
2021/05/25 00:32:35;;;;;;;3.25;0.47;;;;;;;8.49;74.76;98634.81;4997478;28;20084;-69
2021/05/25 00:35:01;;;;;;;1.35;0.30;;;;;;;8.41;74.99;98635.78;4991548;28;20113;-68
2021/05/25 00:37:26;;;;;;;1.55;0.32;;;;;;;8.31;75.64;98627.97;4994313;28;20026;-69
2021/05/25 00:39:52;;;;;;;4.45;0.65;;;;;;;8.34;75.50;98632.16;4998494;28;20036;-69
2021/05/25 00:42:17;;;;;;;1.25;0.45;;;;;;;8.31;75.67;98648.72;4987346;28;20147;-68
2021/05/25 00:44:42;;;;;;;2.47;0.30;;;;;;;8.30;75.80;98642.47;4983693;28;20081;-68
2021/05/25 00:47:08;;;;;;;1.65;0.50;;;;;;;8.19;76.46;98631.38;4972779;28;20030;-68
2021/05/25 00:49:33;;;;;;;1.05;0.43;;;;;;;8.04;76.40;98628.72;4989888;28;20368;-68
2021/05/25 00:51:58;;;;;;;2.53;0.30;;;;;;;7.99;76.66;98633.84;4986718;28;20488;-68
2021/05/25 00:54:24;;;;;;;1.27;0.43;;;;;;;8.05;76.79;98644.72;5006083;28;20027;-68
2021/05/25 00:56:49;;;;;;;2.90;0.40;;;;;;;7.99;76.87;98633.84;4977747;28;20033;-68
2021/05/25 00:59:15;;;;;;;0.80;0.30;;;;;;;7.91;77.19;98626.72;4983639;28;20066;-68
2021/05/25 01:01:40;;;;;;;0.60;0.40;;;;;;;8.00;76.79;98636.38;4997520;28;20042;-68
2021/05/25 01:04:06;;;;;;;1.42;0.38;;;;;;;8.00;77.30;98644.44;4991640;28;20435;-68
2021/05/25 01:06:31;;;;;;;3.40;0.50;;;;;;;7.83;76.98;98634.91;5006275;28;20097;-68
2021/05/25 01:09:00;;;;;;;1.48;0.32;;;;;;;7.95;77.40;98651.44;5001156;28;20101;-69
2021/05/25 01:11:26;;;;;;;0.75;0.40;;;;;;;7.99;76.60;98648.19;4979308;28;20102;-68
2021/05/25 01:13:54;;;;;;;0.55;0.25;;;;;;;8.01;76.53;98650.66;4973050;28;20055;-68
2021/05/25 01:16:22;;;;;;;1.25;0.47;;;;;;;8.05;76.57;98662.75;5014542;28;20036;-68
2021/05/25 01:18:48;;;;;;;2.47;0.30;;;;;;;8.05;76.26;98644.72;4992664;28;20443;-69
2021/05/25 01:21:15;;;;;;;2.03;0.40;;;;;;;8.23;75.36;98660.44;4999920;28;20034;-68
2021/05/25 01:23:40;;;;;;;0.88;0.40;;;;;;;8.17;75.32;98636.09;4995085;28;20052;-69
2021/05/25 01:26:07;;;;;;;0.50;0.40;;;;;;;8.12;75.47;98650.16;5008847;28;20056;-68
2021/05/25 01:28:33;;;;;;;1.95;0.30;;;;;;;7.99;76.10;98653.56;4989913;28;20038;-69
2021/05/25 01:30:58;;;;;;;0.50;0.10;;;;;;;7.88;76.89;98660.25;4993070;28;20110;-69
2021/05/25 01:33:27;;;;;;;1.92;0.50;;;;;;;7.81;76.96;98669.31;4995355;28;20069;-68
2021/05/25 01:35:53;;;;;;;4.88;0.40;;;;;;;7.80;77.37;98656.84;4993060;28;20052;-69
2021/05/25 01:38:19;;;;;;;0.93;0.45;;;;;;;7.84;77.18;98666.22;4997025;28;20038;-69
2021/05/25 01:40:46;;;;;;;2.25;0.50;;;;;;;7.88;77.09;98656.72;4985457;28;20499;-70
2021/05/25 01:43:12;;;;;;;1.23;0.40;;;;;;;7.94;76.58;98649.75;4998035;28;20042;-69
2021/05/25 01:45:39;;;;;;;2.80;0.52;;;;;;;7.89;76.00;98650.34;5006586;28;20036;-68
2021/05/25 01:48:07;;;;;;;2.38;0.60;;;;;;;7.84;76.87;98667.06;5013870;28;20025;-68
2021/05/25 01:50:33;;;;;;;3.05;0.40;;;;;;;7.83;77.04;98669.94;5003896;28;20076;-69
2021/05/25 01:53:14;;;;;;;1.75;0.50;;;;;;;7.82;76.80;98670.97;4994572;28;20023;-69
2021/05/25 01:55:45;;;;;;;2.30;0.50;;;;;;;7.74;77.67;98671.91;4992080;28;20023;-69
2021/05/25 01:58:13;;;;;;;1.25;0.40;;;;;;;7.70;77.02;98665.22;4994236;28;20050;-69
2021/05/25 02:00:42;;;;;;;0.40;0.30;;;;;;;7.69;77.17;98669.78;4992052;28;20034;-68
2021/05/25 02:03:07;;;;;;;1.07;0.50;;;;;;;7.72;77.24;98668.56;5008155;28;20109;-69
2021/05/25 02:05:34;;;;;;;2.03;0.95;;;;;;;7.76;76.30;98647.50;5006339;28;20126;-68
2021/05/25 02:08:00;;;;;;;1.85;0.50;;;;;;;7.76;76.55;98644.81;4985756;28;20034;-68
2021/05/25 02:10:56;;;;;;;2.38;0.60;;;;;;;7.79;76.85;98665.97;4980225;28;20026;-69
2021/05/25 02:13:22;;;;;;;1.17;0.47;;;;;;;7.74;77.26;98665.69;5000731;28;20042;-68
2021/05/25 02:15:51;;;;;;;2.20;0.40;;;;;;;7.85;76.54;98667.88;4998365;28;20027;-68
2021/05/25 02:18:19;;;;;;;1.73;0.60;;;;;;;7.85;76.69;98662.50;4994723;28;20109;-68
2021/05/25 02:20:46;;;;;;;1.25;0.47;;;;;;;7.92;76.52;98676.06;4987398;28;20026;-68
2021/05/25 02:23:11;;;;;;;2.67;0.60;;;;;;;8.01;76.31;98683.81;4993823;28;20476;-69
2021/05/25 02:25:38;;;;;;;1.98;0.47;;;;;;;8.03;76.54;98680.94;4994639;28;20026;-68
2021/05/25 02:28:04;;;;;;;1.05;0.50;;;;;;;7.99;76.53;98682.34;4994149;28;20550;-68
2021/05/25 02:30:34;;;;;;;6.32;0.73;;;;;;;8.07;76.30;98680.38;4996698;28;20034;-68
2021/05/25 02:33:01;;;;;;;0.77;0.45;;;;;;;8.09;76.66;98686.41;4983935;28;20030;-68
2021/05/25 02:35:26;;;;;;;2.13;0.38;;;;;;;8.18;76.56;98686.31;4979501;28;20054;-69
2021/05/25 02:37:52;;;;;;;1.75;0.32;;;;;;;8.21;76.36;98686.75;4983011;28;20034;-69
2021/05/25 02:40:18;;;;;;;6.43;0.60;;;;;;;8.20;76.42;98686.94;4993169;28;20625;-68
2021/05/25 02:42:44;;;;;;;2.28;0.70;;;;;;;8.27;75.97;98685.97;4999742;28;20026;-68
2021/05/25 02:45:10;;;;;;;1.50;0.43;;;;;;;8.26;76.33;98695.09;4996450;28;20031;-69
2021/05/25 02:47:36;;;;;;;1.33;0.50;;;;;;;8.25;76.03;98677.25;4980266;28;20018;-68
2021/05/25 02:50:08;;;;;;;2.85;0.52;;;;;;;8.30;76.04;98690.97;5013723;28;20136;-68
2021/05/25 02:52:44;;;;;;;1.02;0.45;;;;;;;8.33;76.30;98684.38;4984482;28;20526;-68
2021/05/25 02:55:12;;;;;;;1.90;0.55;;;;;;;8.30;76.52;98690.16;4978275;28;20030;-69
2021/05/25 02:57:38;;;;;;;1.48;0.60;;;;;;;8.38;76.11;98681.94;4993537;28;20033;-68
2021/05/25 03:00:05;;;;;;;1.52;0.40;;;;;;;8.34;76.14;98688.75;4993859;28;20030;-68
2021/05/25 03:02:31;;;;;;;2.47;0.55;;;;;;;8.35;75.97;98690.41;4993613;28;20030;-69
2021/05/25 03:04:56;;;;;;;2.40;0.60;;;;;;;8.34;76.25;98708.44;4993603;28;20040;-68
2021/05/25 03:07:22;;;;;;;2.08;0.65;;;;;;;8.39;75.98;98715.13;4993420;28;20026;-69
2021/05/25 03:09:47;;;;;;;2.63;0.52;;;;;;;8.34;76.28;98713.00;5000858;28;20096;-69
2021/05/25 03:12:12;;;;;;;4.63;0.73;;;;;;;8.34;76.13;98703.06;4996342;28;20019;-68
2021/05/25 03:14:38;;;;;;;2.55;0.50;;;;;;;8.33;75.77;98709.47;4992484;28;20032;-68
2021/05/25 03:17:03;;;;;;;2.92;0.57;;;;;;;8.34;75.91;98710.31;5006044;28;20072;-68
2021/05/25 03:19:28;;;;;;;1.77;0.45;;;;;;;8.33;76.18;98716.72;5006053;28;20051;-69
2021/05/25 03:21:53;;;;;;;2.08;0.82;;;;;;;8.26;75.62;98705.03;5001951;28;20030;-68
2021/05/25 03:24:20;;;;;;;3.60;0.50;;;;;;;8.27;75.40;98701.31;4993977;28;20031;-68
2021/05/25 03:26:46;;;;;;;3.40;0.40;;;;;;;8.08;76.11;98708.16;4989936;28;20510;-68
2021/05/25 03:29:11;;;;;;;2.35;0.60;;;;;;;8.01;76.06;98705.38;4996192;28;20034;-69
2021/05/25 03:31:37;;;;;;;1.70;0.60;;;;;;;8.03;76.62;98707.88;4993549;28;20038;-68
2021/05/25 03:34:03;;;;;;;4.30;0.50;;;;;;;7.94;76.13;98691.00;4993061;28;20057;-68
2021/05/25 03:36:28;;;;;;;1.00;0.45;;;;;;;7.95;76.50;98703.44;4992514;28;20026;-68
2021/05/25 03:38:54;;;;;;;1.08;0.50;;;;;;;7.83;76.35;98683.41;4990585;28;20502;-68
2021/05/25 03:41:19;;;;;;;2.03;0.52;;;;;;;7.83;77.06;98704.94;4993395;28;20719;-68
2021/05/25 03:43:46;;;;;;;2.47;0.43;;;;;;;7.67;76.55;98685.28;4997163;28;20025;-68
2021/05/25 03:46:11;;;;;;;2.58;0.45;;;;;;;7.61;77.44;98707.56;5008240;28;20029;-68
2021/05/25 03:48:36;;;;;;;0.98;0.50;;;;;;;7.54;78.48;98714.72;4992642;28;20022;-68
2021/05/25 03:51:02;;;;;;;1.33;0.60;;;;;;;7.47;78.16;98705.72;4992494;28;20057;-70
2021/05/25 03:53:27;;;;;;;3.15;0.60;;;;;;;7.58;77.82;98707.94;4984186;28;20022;-70
2021/05/25 03:55:55;;;;;;;0.77;0.60;;;;;;;7.69;77.95;98718.25;4986278;28;20065;-70
2021/05/25 04:01:05;;;;;;;4.93;0.60;;;;;;;7.94;76.40;98720.66;4997306;28;20511;-69
2021/05/25 04:03:31;;;;;;;2.67;0.68;;;;;;;8.04;75.75;98729.28;4973236;28;20066;-71
2021/05/25 04:05:57;;;;;;;2.17;0.65;;;;;;;8.14;75.44;98728.94;4987556;28;20113;-69
2021/05/25 04:08:22;;;;;;;2.00;0.70;;;;;;;8.24;74.05;98732.19;4992363;28;20033;-69
2021/05/25 04:10:48;;;;;;;2.72;0.70;;;;;;;8.31;74.25;98733.09;4992860;28;20033;-71
2021/05/25 04:13:15;;;;;;;1.33;0.50;;;;;;;8.33;73.88;98741.84;4992702;28;20025;-69
2021/05/25 04:15:49;;;;;;;1.55;0.50;;;;;;;8.28;73.32;98733.47;4991099;28;20121;-70
2021/05/25 04:18:15;;;;;;;4.05;0.63;;;;;;;8.55;72.85;98736.47;4992282;28;20061;-70
2021/05/25 04:20:40;;;;;;;2.80;0.57;;;;;;;8.63;71.25;98738.22;4992560;28;20121;-69
2021/05/25 04:23:05;;;;;;;0.95;0.30;;;;;;;8.57;70.50;98718.25;4991640;28;20030;-70
2021/05/25 04:25:31;;;;;;;4.47;0.55;;;;;;;8.76;69.60;98739.19;4991128;28;20027;-73
2021/05/25 04:27:56;;;;;;;1.30;0.30;;;;;;;8.79;70.06;98743.34;4990979;28;20030;-69
2021/05/25 04:30:22;;;;;;;3.42;0.65;;;;;;;8.62;70.09;98752.72;4991535;28;20160;-73
2021/05/25 04:32:49;;;;;;;1.85;0.47;;;;;;;8.59;69.93;98755.81;4998491;28;20026;-74
2021/05/25 04:35:14;;;;;;;2.20;0.55;;;;;;;8.56;69.99;98738.13;5011576;28;20033;-74
2021/05/25 04:37:39;;;;;;;2.80;0.50;;;;;;;8.43;69.66;98729.91;5009314;28;20026;-69
2021/05/25 04:40:06;;;;;;;3.38;0.22;;;;;;;8.54;69.82;98757.22;4989330;28;20117;-72
2021/05/25 04:42:31;;;;;;;3.75;0.50;;;;;;;8.55;69.28;98745.41;4990874;28;20114;-72
2021/05/25 04:44:56;;;;;;;3.17;0.63;;;;;;;8.48;69.63;98749.88;4992462;28;20105;-72
2021/05/25 04:47:22;;;;;;;2.58;0.60;;;;;;;8.54;69.82;98757.22;4992143;28;20062;-70
2021/05/25 04:49:47;;;;;;;1.85;0.50;;;;;;;8.79;69.55;98770.31;4986105;28;20037;-73
2021/05/25 04:52:13;;;;;;;3.40;0.50;;;;;;;8.99;68.82;98763.25;4981575;28;20093;-73
2021/05/25 04:54:38;;;;;;;2.58;0.50;;;;;;;9.02;69.23;98762.03;4986910;28;20033;-71
2021/05/25 04:57:04;;;;;;;2.25;0.30;;;;;;;9.14;68.84;98773.13;4982954;28;20428;-71
2021/05/25 04:59:29;;;;;;;1.98;0.68;;;;;;;9.05;69.14;98774.31;4991093;28;20069;-73
2021/05/25 05:01:54;;;;;;;3.42;0.50;;;;;;;9.10;69.09;98769.16;4991653;28;20423;-74
2021/05/25 05:04:20;;;;;;;1.38;0.50;;;;;;;8.89;68.79;98765.44;4981352;28;20230;-73
2021/05/25 05:06:45;;;;;;;1.20;0.30;;;;;;;8.85;68.81;98769.53;4991921;28;20619;-71
2021/05/25 05:09:10;;;;;;;2.33;0.47;;;;;;;8.88;69.36;98774.56;4990627;28;20053;-72
2021/05/25 05:11:36;;;;;;;1.63;0.30;;;;;;;9.04;68.54;98783.41;4985113;28;20026;-76
2021/05/25 05:14:02;;;;;;;1.20;0.45;;;;;;;9.08;68.83;98790.09;4995041;28;20022;-75
2021/05/25 05:16:27;;;;;;;2.80;0.45;;;;;;;9.11;69.17;98787.84;4993646;28;20022;-70
2021/05/25 05:18:52;;;;;;;1.10;0.30;;;;;;;9.17;68.51;98791.66;4985938;28;20041;-70
2021/05/25 05:21:18;;;;;;;1.75;0.50;;;;;;;9.29;68.64;98798.16;4989541;28;20365;-70
2021/05/25 05:23:43;;;;;;;4.97;0.75;;;;;;;9.29;67.51;98781.97;4995446;28;20045;-73
2021/05/25 05:26:10;;;;;;;1.35;0.30;;;;;;;9.18;67.52;98777.13;4993412;28;20121;-73
2021/05/25 05:28:35;;;;;;;2.22;0.35;;;;;;;9.36;67.42;98782.03;4992959;28;20018;-74
2021/05/25 05:31:00;;;;;;;2.50;0.38;;;;;;;9.60;66.74;98783.44;4980241;28;20037;-66
2021/05/25 05:33:27;;;;;;;4.32;0.30;;;;;;;9.59;66.65;98771.81;4990140;28;20030;-72
2021/05/25 05:35:53;;;;;;;1.05;0.38;;;;;;;9.97;65.22;98787.63;4995074;28;20034;-70
2021/05/25 05:38:18;;;;;;;0.38;0.20;;;;;;;9.93;65.33;98793.63;4993796;28;20499;-69
2021/05/25 05:40:43;;;;;;;3.53;0.32;;;;;;;9.88;65.22;98800.47;4995282;28;20084;-68
2021/05/25 05:43:09;;;;;;;2.50;0.30;;;;;;;9.74;65.42;98795.16;4995700;28;20030;-74
2021/05/25 05:45:35;;;;;;;2.60;0.22;;;;;;;9.72;65.03;98795.38;4990913;28;20022;-75
2021/05/25 05:48:00;;;;;;;2.40;0.47;;;;;;;9.56;66.09;98796.53;4983509;28;20029;-70
2021/05/25 05:50:25;;;;;;;0.77;0.17;;;;;;;9.49;66.11;98806.44;4982381;28;20460;-70
2021/05/25 05:52:51;;;;;;;1.15;0.30;;;;;;;9.60;65.70;98802.34;4995224;28;20029;-73
2021/05/25 05:55:18;;;;;;;1.17;0.20;;;;;;;9.76;65.16;98810.16;4983445;28;20027;-70
2021/05/25 05:57:45;;;;;;;1.88;0.47;;;;;;;9.86;64.79;98816.03;4988906;28;20035;-71
2021/05/25 06:00:12;;;;;;;1.48;0.30;;;;;;;9.86;65.12;98815.22;4995111;28;20032;-72
2021/05/25 06:02:37;;;;;;;3.22;0.50;;;;;;;9.78;65.09;98826.19;4993156;28;20026;-71
2021/05/25 06:05:03;;;;;;;4.13;0.60;;;;;;;9.85;65.13;98822.50;4993469;28;20022;-70
2021/05/25 06:07:28;;;;;;;1.63;0.32;;;;;;;10.21;64.53;98817.88;4985098;28;20485;-70
2021/05/25 06:09:56;;;;;;;0.52;0.20;;;;;;;10.31;63.89;98821.91;4994570;28;20505;-72
2021/05/25 06:12:22;;;;;;;0.85;0.20;;;;;;;10.68;61.75;98811.66;4995233;28;20028;-71
2021/05/25 06:14:47;;;;;;;0.75;0.20;;;;;;;11.05;60.83;98809.44;5014367;28;20022;-74
2021/05/25 06:17:13;;;;;;;0.65;0.25;;;;;;;10.80;60.69;98827.31;4997926;28;20073;-73
2021/05/25 06:19:38;;;;;;;1.30;0.40;;;;;;;11.02;61.22;98817.16;4992602;28;20030;-76
2021/05/25 06:22:03;;;;;;;2.05;0.63;;;;;;;11.19;60.60;98813.00;4975107;28;20125;-71
2021/05/25 06:24:29;;;;;;;1.23;0.43;;;;;;;11.18;59.81;98811.31;4989869;28;20034;-73
2021/05/25 06:26:54;;;;;;;0.73;0.30;;;;;;;11.23;59.92;98811.53;4993572;28;20030;-69
2021/05/25 06:29:19;;;;;;;1.73;0.40;;;;;;;11.76;58.98;98805.25;4993118;28;20034;-70
2021/05/25 06:31:45;;;;;;;0.98;0.30;;;;;;;12.33;57.34;98822.66;4994660;28;20546;-69
2021/05/25 06:34:10;;;;;;;1.42;0.20;;;;;;;12.10;56.62;98806.06;4992330;28;20027;-71
2021/05/25 06:36:35;;;;;;;1.13;0.28;;;;;;;11.72;57.60;98813.00;4992230;28;20026;-72
2021/05/25 06:39:00;;;;;;;2.00;0.40;;;;;;;12.32;56.85;98803.91;4987562;28;20476;-69
2021/05/25 06:41:27;;;;;;;0.73;0.20;;;;;;;11.93;56.09;98803.81;4993600;28;20417;-71
2021/05/25 06:43:52;;;;;;;0.98;0.40;;;;;;;11.81;55.86;98817.13;5002076;28;20034;-71
2021/05/25 06:46:17;;;;;;;1.30;0.30;;;;;;;11.49;56.69;98831.56;4993164;28;20365;-72
2021/05/25 06:48:42;;;;;;;3.45;0.28;;;;;;;11.44;56.05;98813.22;5004931;28;20471;-71
2021/05/25 06:51:08;;;;;;;0.50;0.22;;;;;;;11.84;55.70;98826.72;4986902;28;20033;-71
2021/05/25 06:53:35;;;;;;;0.98;0.30;;;;;;;12.32;54.51;98823.72;4984978;28;20021;-68
2021/05/25 06:56:00;;;;;;;0.10;0.10;;;;;;;12.21;53.95;98824.41;4994203;28;20543;-68
2021/05/25 06:58:25;;;;;;;1.58;0.20;;;;;;;12.94;52.88;98824.03;4993598;28;20114;-68
2021/05/25 07:00:51;;;;;;;1.33;0.30;;;;;;;14.34;49.73;98810.09;4993843;28;20030;-68
2021/05/25 07:03:16;;;;;;;2.90;0.40;;;;;;;15.78;46.99;98799.19;4979477;28;20116;-67
2021/05/25 07:05:41;;;;;;;3.80;0.50;;;;;;;16.31;44.44;98799.25;4974525;28;20101;-69
2021/05/25 07:08:07;;;;;;;1.08;0.30;;;;;;;15.82;45.02;98807.72;4988676;28;20061;-69
2021/05/25 07:10:32;;;;;;;1.65;0.40;;;;;;;16.36;43.62;98797.47;4992860;28;20022;-68
2021/05/25 07:12:58;;;;;;;4.93;0.50;;;;;;;15.35;45.91;98807.66;4991022;28;20057;-69
2021/05/25 07:15:23;;;;;;;2.28;0.98;;;;;;;14.53;47.41;98813.66;4991083;28;20077;-70
2021/05/25 07:17:58;;;;;;;2.33;0.40;;;;;;;13.78;49.73;98822.81;4992698;28;20547;-67
2021/05/25 07:20:28;;;;;;;0.45;0.25;;;;;;;13.28;49.99;98809.25;4988325;28;20117;-66
2021/05/25 07:22:54;;;;;;;0.95;0.30;;;;;;;12.44;51.84;98813.88;4993081;28;20034;-75
2021/05/25 07:25:25;;;;;;;2.08;0.40;;;;;;;12.39;51.55;98821.84;4992720;28;20030;-72
2021/05/25 07:27:52;;;;;;;1.10;0.30;;;;;;;12.03;52.50;98831.31;4992639;28;20113;-72
2021/05/25 07:30:18;;;;;;;1.65;0.20;;;;;;;11.99;52.33;98821.94;4979463;28;20114;-70
2021/05/25 07:32:44;;;;;;;1.60;0.32;;;;;;;12.03;53.47;98830.50;4983992;28;20526;-70
2021/05/25 07:35:10;;;;;;;2.53;0.25;;;;;;;11.94;52.92;98829.03;4989619;28;20110;-70
2021/05/25 07:37:36;;;;;;;3.85;0.22;;;;;;;11.76;54.30;98835.94;4983651;28;20061;-76
2021/05/25 07:40:02;;;;;;;1.20;0.60;;;;;;;11.51;55.87;98843.84;4992483;28;20037;-68
2021/05/25 07:42:28;;;;;;;4.70;0.30;;;;;;;11.46;55.97;98824.69;4991163;28;20034;-70
2021/05/25 07:44:53;;;;;;;5.50;0.80;;;;;;;11.61;56.90;98852.41;4994065;28;20037;-73
2021/05/25 07:47:19;;;;;;;3.20;0.40;;;;;;;11.67;57.32;98853.44;4992532;28;20377;-72
2021/05/25 07:49:44;;;;;;;1.00;0.30;;;;;;;11.52;57.09;98856.34;4991409;28;20368;-70
2021/05/25 07:52:10;;;;;;;1.38;0.30;;;;;;;11.29;58.08;98853.19;4988829;28;20487;-69
2021/05/25 07:54:35;;;;;;;3.10;0.30;;;;;;;11.15;58.27;98864.03;4990604;28;20042;-70
2021/05/25 07:57:01;;;;;;;3.45;0.40;;;;;;;11.08;58.41;98862.34;4989462;28;20076;-72
2021/05/25 07:59:26;;;;;;;7.20;0.68;;;;;;;10.84;57.83;98869.97;4989956;28;20026;-73
2021/05/25 08:01:53;;;;;;;1.75;0.15;;;;;;;10.87;56.75;98877.72;4992900;28;20395;-69
2021/05/25 08:04:18;;;;;;;2.22;0.25;;;;;;;10.82;56.19;98879.34;4984834;28;20542;-73
2021/05/25 08:06:44;;;;;;;1.75;0.20;;;;;;;10.71;56.27;98884.28;4994315;28;20030;-72
2021/05/25 08:09:09;;;;;;;0.82;0.32;;;;;;;10.61;55.98;98870.34;4994000;28;20033;-71
2021/05/25 08:11:34;;;;;;;0.73;0.13;;;;;;;10.59;57.28;98895.94;4992190;28;20026;-72
2021/05/25 08:14:00;;;;;;;1.95;0.40;;;;;;;10.61;57.00;98883.88;4992931;28;20026;-71
2021/05/25 08:16:30;;;;;;;1.90;0.28;;;;;;;10.89;56.59;98907.28;4982820;28;20030;-72
2021/05/25 08:19:11;;;;;;;3.45;0.28;;;;;;;11.08;56.11;98895.69;4981479;28;20024;-72
2021/05/25 08:21:38;;;;;;;0.28;0.20;;;;;;;11.38;54.37;98900.72;4991119;28;20026;-73
2021/05/25 08:24:06;;;;;;;4.43;0.30;;;;;;;11.26;54.44;98899.66;4991549;28;20121;-71
2021/05/25 08:26:31;;;;;;;2.95;0.30;;;;;;;11.06;54.43;98908.59;4991202;28;20026;-68
2021/05/25 08:28:56;;;;;;;1.40;0.40;;;;;;;11.07;54.34;98920.25;4988310;28;20362;-72
2021/05/25 08:31:22;;;;;;;0.95;0.28;;;;;;;11.03;56.39;98897.31;4973046;28;20078;-68
2021/05/25 08:33:47;;;;;;;2.60;0.30;;;;;;;10.87;58.37;98925.56;4974705;28;20042;-71
2021/05/25 08:36:15;;;;;;;3.30;0.30;;;;;;;10.81;57.38;98912.88;4980959;28;20077;-71
2021/05/25 08:38:40;;;;;;;6.07;1.40;;;;;;;10.74;57.61;98921.81;4990391;28;20484;-71
2021/05/25 08:41:06;;;;;;;8.07;3.50;;;;;;;10.76;57.46;98921.59;4992349;28;20081;-74
2021/05/25 08:43:32;;;;;;;2.47;1.20;;;;;;;11.17;56.69;98915.28;4991054;28;20584;-68
2021/05/25 08:45:57;;;;;;;1.98;0.55;;;;;;;11.48;55.79;98905.75;4980534;28;20105;-71
2021/05/25 08:48:23;;;;;;;2.58;0.57;;;;;;;11.72;55.11;98913.28;4989892;28;20086;-72
2021/05/25 08:50:50;;;;;;;0.38;0.30;;;;;;;11.75;54.62;98920.16;4986498;28;20085;-71
2021/05/25 08:53:16;;;;;;;1.00;0.30;;;;;;;11.72;56.08;98931.41;4990242;28;20026;-70
2021/05/25 08:55:46;;;;;;;5.25;0.52;;;;;;;12.10;54.58;98933.50;4994281;28;20495;-72
2021/05/25 08:58:11;;;;;;;1.33;0.30;;;;;;;11.85;55.49;98929.53;4994601;28;20032;-71
2021/05/25 09:00:36;;;;;;;3.60;0.40;;;;;;;11.71;54.96;98940.56;4996357;28;20105;-73
2021/05/25 09:03:02;;;;;;;1.00;0.40;;;;;;;11.67;55.63;98937.44;4994841;28;20058;-70
2021/05/25 09:05:27;;;;;;;1.00;0.20;;;;;;;11.88;55.32;98952.72;4995178;28;20030;-76
2021/05/25 09:07:55;;;;;;;1.55;0.25;;;;;;;12.31;54.11;98954.97;4990522;28;20029;-71
2021/05/25 09:10:29;;;;;;;7.38;0.40;;;;;;;12.36;53.85;98959.78;4995697;28;20026;-70
2021/05/25 09:12:55;;;;;;;0.70;0.28;;;;;;;12.00;54.30;98951.06;4994351;28;20030;-68
2021/05/25 09:15:31;;;;;;;2.05;0.45;;;;;;;11.85;55.42;98972.09;4994354;28;20503;-68
2021/05/25 09:18:07;;;;;;;1.58;0.28;;;;;;;11.87;55.90;98980.03;4980316;28;20154;-70
2021/05/25 09:20:44;;;;;;;1.73;0.38;;;;;;;11.49;56.49;98972.44;4991432;28;20034;-71
2021/05/25 09:23:12;;;;;;;1.27;0.55;;;;;;;11.41;57.98;98981.59;4995608;28;20026;-75
2021/05/25 09:25:51;;;;;;;1.48;0.38;;;;;;;11.25;57.20;99000.94;4994748;28;20042;-71
2021/05/25 09:28:17;;;;;;;;;;;;;;;11.53;56.13;98977.25;4976510;28;20485;-72
2021/05/25 09:30:45;;;;;;;3.10;0.40;;;;;;;11.58;56.14;98955.78;4978469;28;19914;-74
2021/05/25 09:33:10;;;;;;;2.03;0.75;;;;;;;11.90;55.95;99001.31;4984310;28;20054;-70
2021/05/25 09:35:38;;;;;;;2.78;0.60;;;;;;;11.66;56.31;98984.56;4986814;28;20112;-68
2021/05/25 09:38:18;;;;;;;1.05;0.30;;;;;;;11.63;56.72;98984.97;4982817;28;20060;-69
2021/05/25 09:40:48;;;;;;;3.00;0.50;;;;;;;12.24;55.13;98990.25;4976481;28;20031;-69
2021/05/25 09:43:22;;;;;;;4.68;0.50;;;;;;;12.36;55.11;98992.34;4975177;28;20030;-74
2021/05/25 09:45:55;;;;;;;3.33;0.47;;;;;;;12.37;55.66;98991.31;4982902;28;20034;-74
2021/05/25 09:48:25;;;;;;;0.30;0.10;;;;;;;12.71;53.91;98982.88;5008241;28;20081;-74
2021/05/25 09:50:52;;;;;;;3.00;0.50;;;;;;;12.52;53.98;98966.63;4993586;28;20030;-72
2021/05/25 09:53:21;;;;;;;1.55;0.40;;;;;;;12.64;54.00;98989.38;4996512;28;20029;-68
2021/05/25 09:55:55;;;;;;;1.48;0.20;;;;;;;12.77;53.71;98989.34;4982464;28;20030;-72
2021/05/25 09:58:33;;;;;;;5.55;0.60;;;;;;;13.16;52.31;98979.38;4991129;28;20053;-72
2021/05/25 10:00:59;;;;;;;3.95;0.40;;;;;;;13.54;51.32;98973.97;4990339;28;20041;-71
2021/05/25 10:03:26;;;;;;;1.80;0.60;;;;;;;14.96;48.83;98987.03;4994183;28;20080;-70
2021/05/25 10:05:59;;;;;;;1.52;0.50;;;;;;;13.97;50.34;98970.56;4993850;28;20041;-69
2021/05/25 10:08:25;;;;;;;4.30;0.50;;;;;;;13.73;51.23;98984.97;4995984;28;20432;-67
2021/05/25 10:10:52;;;;;;;2.55;0.50;;;;;;;13.16;56.31;98995.69;5008051;28;20036;-68
2021/05/25 10:13:18;;;;;;;3.33;0.50;;;;;;;12.34;59.50;99007.97;5013116;28;20025;-69
2021/05/25 10:15:48;;;;;;;4.07;0.57;;;;;;;11.37;65.95;99034.50;5005502;28;20053;-74
2021/05/25 10:18:34;;;;;;;1.83;0.35;;;;;;;10.78;68.45;99032.34;5001667;28;20030;-69
2021/05/25 10:21:02;;;;;;;1.48;0.28;;;;;;;13.32;61.24;99005.25;4981150;28;20031;-73
2021/05/25 10:23:32;;;;;;;4.65;0.60;;;;;;;15.68;55.83;99021.75;4995957;28;20027;-71
2021/05/25 10:26:00;;;;;;;3.88;0.40;;;;;;;17.51;50.85;99011.63;5004576;28;20034;-72
2021/05/25 10:28:25;;;;;;;1.40;0.30;;;;;;;17.21;49.73;98998.19;5000897;28;20029;-70
2021/05/25 10:30:52;;;;;;;3.38;0.50;;;;;;;16.83;47.82;98994.09;5018166;23;20038;-69
2021/05/25 10:33:26;;;;;;;1.73;0.40;;;;;;;17.63;48.80;98999.81;5013737;28;20037;-69
2021/05/25 10:36:00;;;;;;;1.20;0.30;;;;;;;20.44;43.91;98989.13;5014279;28;20030;-69
2021/05/25 10:38:31;;;;;;;0.93;0.32;;;;;;;20.79;41.10;98994.06;5012733;28;20037;-69
2021/05/25 10:41:05;;;;;;;2.72;0.55;;;;;;;19.42;41.43;98997.16;4995536;28;20093;-69
2021/05/25 10:43:39;;;;;;;1.02;0.30;;;;;;;16.17;47.31;99008.88;5001580;28;20029;-69
2021/05/25 10:46:10;;;;;;;5.72;0.70;;;;;;;14.38;49.60;99011.88;4997268;28;20038;-69
2021/05/25 10:49:04;;;;;;;2.08;0.40;;;;;;;15.25;49.45;99030.94;4991642;28;20026;-69
2021/05/25 10:52:04;;;;;;;3.95;0.50;;;;;;;14.59;49.63;99016.09;4999877;28;20029;-69
2021/05/25 10:54:30;;;;;;;2.25;0.55;;;;;;;13.32;51.41;99003.38;4987836;28;20121;-69
2021/05/25 10:56:57;;;;;;;2.50;0.40;;;;;;;13.28;51.56;99026.63;5006262;28;20114;-68
2021/05/25 10:59:23;;;;;;;1.15;0.30;;;;;;;13.29;51.73;99017.41;5000466;28;20022;-68
2021/05/25 11:01:56;;;;;;;2.97;0.40;;;;;;;13.13;51.09;99031.44;5016475;28;20038;-69
2021/05/25 11:04:34;;;;;;;2.72;0.20;;;;;;;13.51;50.66;99034.22;4990896;28;20031;-69
2021/05/25 11:07:00;;;;;;;2.72;0.52;;;;;;;13.58;49.45;99004.28;4990607;28;20458;-68
2021/05/25 11:09:28;;;;;;;0.60;0.25;;;;;;;13.28;50.60;99029.34;4997730;28;20030;-68
2021/05/25 11:12:13;;;;;;;2.30;0.55;;;;;;;13.20;49.00;99001.50;5005861;28;20195;-68
2021/05/25 11:15:15;;;;;;;2.55;0.38;;;;;;;14.17;47.46;99024.84;5008699;28;20049;-68
2021/05/25 11:17:40;;;;;;;2.75;0.30;;;;;;;14.96;47.25;99025.19;5003799;28;20034;-66
2021/05/25 11:20:28;;;;;;;0.70;0.20;;;;;;;14.14;48.93;99018.97;5005475;28;20072;-68
2021/05/25 11:22:53;;;;;;;8.40;1.05;;;;;;;17.82;42.55;99005.97;4992277;28;20026;-68
2021/05/25 11:25:40;;;;;;;12.93;0.95;;;;;;;14.64;46.66;99019.00;5001407;28;20034;-69
2021/05/25 11:28:06;;;;;;;10.20;0.63;;;;;;;16.41;43.91;99024.22;5010398;28;20108;-67
2021/05/25 11:30:32;;;;;;;1.15;0.22;;;;;;;16.84;43.38;99017.59;4995783;28;20032;-67
2021/05/25 11:33:00;;;;;;;3.60;0.38;;;;;;;18.02;40.66;99011.78;5009791;28;20114;-67
2021/05/25 11:35:27;;;;;;;3.03;0.30;;;;;;;16.02;44.01;99005.78;5009363;28;20036;-67
2021/05/25 11:37:55;;;;;;;5.93;0.50;;;;;;;16.56;42.70;99014.75;5000770;28;20138;-66
2021/05/25 11:40:23;;;;;;;5.90;0.60;;;;;;;18.12;41.59;99003.75;4991689;28;20053;-68
2021/05/25 11:42:50;;;;;;;1.55;0.43;;;;;;;16.39;43.31;99009.97;5002824;28;20033;-66